Terminal Aerodrome Forecast
Issued by NWS Denver/Boulder, CO

Home | Current Version | Previous Version | Text Only | Print | Product List | Glossary On
Versions: 1 2 3 4 5 6 7 8 9 10 11 12 13 14 15 16 17 18 19 20 21 22 23 24 25 26 27 28 29 30 31 32 33 34 35 36 37 38 39 40 41 42 43 44 45 46 47 48 49 50
000
FTUS45 KBOU 200304 AAC
TAFDEN
TAF AMD
KDEN 200304Z 2003/2106 33020G34KT P6SM BKN100 OVC220
     FM200400 35014KT P6SM SCT120 BKN220
     FM200600 02007KT P6SM FEW150 BKN220
     FM201000 23008KT P6SM SCT220
     FM201500 VRB06KT P6SM FEW220
     FM201900 29007KT P6SM SCT220
     FM210200 21008KT P6SM SCT220=

USA.gov is the U.S. government's official web portal to all federal, state and local government web resources and services.